createdAt,value
2022-09-23T00:01:11.650Z,13.10
2022-09-23T00:03:41.982Z,13.03
2022-09-23T00:06:13.525Z,12.63
2022-09-23T00:08:41.306Z,12.50
2022-09-23T00:11:16.423Z,12.28
2022-09-23T00:13:45.363Z,12.54
2022-09-23T00:16:15.815Z,12.51
2022-09-23T00:18:43.127Z,12.49
2022-09-23T00:21:13.621Z,12.33
2022-09-23T00:23:41.711Z,12.28
2022-09-23T00:26:12.158Z,12.48
2022-09-23T00:28:39.075Z,11.69
2022-09-23T00:31:08.315Z,11.75
2022-09-23T00:33:35.315Z,12.24
2022-09-23T00:36:04.003Z,12.13
2022-09-23T00:38:30.896Z,12.10
2022-09-23T00:40:58.499Z,11.65
2022-09-23T00:43:41.943Z,12.02
2022-09-23T00:46:11.788Z,12.18
2022-09-23T00:48:41.068Z,12.49
2022-09-23T00:51:10.755Z,12.53
2022-09-23T00:53:38.474Z,12.16
2022-09-23T00:56:07.611Z,12.64
2022-09-23T00:58:37.229Z,12.85
2022-09-23T01:01:04.484Z,12.93
2022-09-23T01:03:31.960Z,12.94
2022-09-23T01:05:59.073Z,13.13
2022-09-23T01:08:27.206Z,13.04
2022-09-23T01:11:18.927Z,12.31
2022-09-23T01:14:00.709Z,11.83
2022-09-23T01:16:43.765Z,11.94
2022-09-23T01:19:35.832Z,12.04
2022-09-23T01:22:02.386Z,12.21
2022-09-23T01:24:35.412Z,12.05
2022-09-23T01:27:40.109Z,12.36
2022-09-23T01:30:36.200Z,12.09
2022-09-23T01:33:30.257Z,11.92
2022-09-23T01:36:25.764Z,11.82
2022-09-23T01:39:05.269Z,11.55
2022-09-23T01:41:53.543Z,11.78
2022-09-23T01:44:29.526Z,11.68
2022-09-23T01:47:06.790Z,11.50
2022-09-23T01:49:57.931Z,11.35
2022-09-23T01:52:35.441Z,11.88
2022-09-23T01:55:14.294Z,11.68
2022-09-23T01:57:47.109Z,12.15
2022-09-23T02:00:18.530Z,12.24
2022-09-23T02:02:51.644Z,12.10
2022-09-23T02:05:30.943Z,12.21
2022-09-23T02:08:03.310Z,12.34
2022-09-23T02:10:49.386Z,12.16
2022-09-23T02:13:30.041Z,12.08
2022-09-23T02:16:02.174Z,11.92
2022-09-23T02:18:34.255Z,12.03
2022-09-23T02:21:06.543Z,11.83
2022-09-23T02:23:36.879Z,11.91
2022-09-23T02:26:12.061Z,11.26
2022-09-23T02:29:08.345Z,11.08
2022-09-23T02:32:00.291Z,11.49
2022-09-23T02:34:32.585Z,11.54
2022-09-23T02:37:14.115Z,11.78
2022-09-23T02:40:05.684Z,11.56
2022-09-23T02:42:47.706Z,11.25
2022-09-23T02:45:14.678Z,11.54
2022-09-23T02:47:44.274Z,11.74
2022-09-23T02:50:10.975Z,11.62
2022-09-23T02:52:38.774Z,11.88
2022-09-23T02:55:09.096Z,11.75
2022-09-23T02:57:35.837Z,11.67
2022-09-23T03:00:02.621Z,11.61
2022-09-23T03:03:02.557Z,11.65
2022-09-23T03:05:34.745Z,11.70
2022-09-23T03:08:33.769Z,11.84
2022-09-23T03:11:06.958Z,11.56
2022-09-23T03:13:43.181Z,12.22
2022-09-23T03:16:21.022Z,12.14
2022-09-23T03:19:21.151Z,12.31
2022-09-23T03:22:08.550Z,12.14
2022-09-23T03:24:37.968Z,12.23
2022-09-23T03:27:13.791Z,12.42
2022-09-23T03:29:50.209Z,12.35
2022-09-23T03:32:20.811Z,12.58
2022-09-23T03:34:51.524Z,12.42
2022-09-23T03:37:25.274Z,12.11
2022-09-23T03:39:57.199Z,12.17
2022-09-23T03:42:27.233Z,11.92
2022-09-23T03:44:56.914Z,11.73
2022-09-23T03:47:26.843Z,11.90
2022-09-23T03:49:54.278Z,11.63
2022-09-23T03:52:23.718Z,11.52
2022-09-23T03:54:52.226Z,11.80
2022-09-23T03:57:22.137Z,11.38
2022-09-23T03:59:50.618Z,11.05
2022-09-23T04:02:19.005Z,11.18
2022-09-23T04:04:46.028Z,11.36
2022-09-23T04:07:13.686Z,11.49
2022-09-23T04:09:40.435Z,11.13
2022-09-23T04:12:08.088Z,11.35
2022-09-23T04:14:35.097Z,11.34
2022-09-23T04:17:01.733Z,11.43
2022-09-23T04:19:28.384Z,11.17
2022-09-23T04:21:54.983Z,11.17
2022-09-23T04:24:22.145Z,10.68
2022-09-23T04:26:53.486Z,10.86
2022-09-23T04:29:20.596Z,10.69
2022-09-23T04:31:47.746Z,10.35
2022-09-23T04:34:17.409Z,9.92
2022-09-23T04:36:48.198Z,9.43
2022-09-23T04:39:16.273Z,9.82
2022-09-23T04:41:44.300Z,9.81
2022-09-23T04:44:12.876Z,9.74
2022-09-23T04:46:46.835Z,9.82
2022-09-23T04:49:14.879Z,9.95
2022-09-23T04:51:43.569Z,10.37
2022-09-23T04:54:12.436Z,10.02
2022-09-23T04:56:39.992Z,9.56
2022-09-23T04:59:07.579Z,8.75
2022-09-23T05:01:36.368Z,9.27
2022-09-23T05:04:06.357Z,9.53
2022-09-23T05:06:37.307Z,9.27
2022-09-23T05:09:08.552Z,10.08
2022-09-23T05:11:35.592Z,10.12
2022-09-23T05:14:02.657Z,10.28
2022-09-23T05:16:29.821Z,10.66
2022-09-23T05:18:57.593Z,10.48
2022-09-23T05:21:26.974Z,10.74
2022-09-23T05:23:55.506Z,10.57
2022-09-23T05:26:25.440Z,10.81
2022-09-23T05:28:53.021Z,11.15
2022-09-23T05:31:22.161Z,10.87
2022-09-23T05:33:52.067Z,10.88
2022-09-23T05:36:20.670Z,11.03
2022-09-23T05:38:49.299Z,10.46
2022-09-23T05:41:17.299Z,10.22
2022-09-23T05:43:44.043Z,10.48
2022-09-23T05:46:13.541Z,10.86
2022-09-23T05:48:41.861Z,10.85
2022-09-23T05:51:13.039Z,11.13
2022-09-23T05:53:46.202Z,10.85
2022-09-23T05:56:14.102Z,10.98
2022-09-23T05:58:41.196Z,11.22
2022-09-23T06:01:21.216Z,11.19
2022-09-23T06:03:52.699Z,10.46
2022-09-23T06:06:21.677Z,11.42
2022-09-23T06:08:48.879Z,10.91
2022-09-23T06:11:15.575Z,10.70
2022-09-23T06:13:42.247Z,10.67
2022-09-23T06:16:12.336Z,11.36
2022-09-23T06:18:40.753Z,10.97
2022-09-23T06:21:08.088Z,10.94
2022-09-23T06:23:37.716Z,11.38
2022-09-23T06:26:09.759Z,10.91
2022-09-23T06:28:40.379Z,10.77
2022-09-23T06:31:14.053Z,11.39
2022-09-23T06:33:42.663Z,11.39
2022-09-23T06:36:09.781Z,10.68
2022-09-23T06:38:44.685Z,11.04
2022-09-23T06:41:12.425Z,11.66
2022-09-23T06:43:39.230Z,11.02
2022-09-23T06:46:07.464Z,11.82
2022-09-23T06:48:37.695Z,11.12
2022-09-23T06:51:07.348Z,10.98
2022-09-23T06:53:34.692Z,11.65
2022-09-23T06:56:11.380Z,11.74
2022-09-23T06:58:40.076Z,11.69
2022-09-23T07:01:19.833Z,11.51
2022-09-23T07:03:50.176Z,11.64
2022-09-23T07:06:17.268Z,11.48
2022-09-23T07:08:47.217Z,11.70
2022-09-23T07:11:15.262Z,11.62
2022-09-23T07:13:42.349Z,12.26
2022-09-23T07:16:10.160Z,11.76
2022-09-23T07:18:37.620Z,11.72
2022-09-23T07:21:07.230Z,11.75
2022-09-23T07:23:33.980Z,11.94
2022-09-23T07:26:01.269Z,12.07
2022-09-23T07:28:29.148Z,12.45
2022-09-23T07:31:00.310Z,12.50
2022-09-23T07:33:33.103Z,12.43
2022-09-23T07:36:19.949Z,12.66
2022-09-23T07:38:47.438Z,12.74
2022-09-23T07:41:18.194Z,13.08
2022-09-23T07:43:46.128Z,12.71
2022-09-23T07:46:16.918Z,12.23
2022-09-23T07:48:45.750Z,11.94
2022-09-23T07:51:21.168Z,11.93
2022-09-23T07:53:49.259Z,12.13
2022-09-23T07:56:16.426Z,13.05
2022-09-23T07:58:43.252Z,11.96
2022-09-23T08:01:12.057Z,11.55
2022-09-23T08:03:39.634Z,11.84
2022-09-23T08:06:12.570Z,12.31
2022-09-23T08:08:43.589Z,12.86
2022-09-23T08:11:13.379Z,12.57
2022-09-23T08:13:40.634Z,12.74
2022-09-23T08:16:07.529Z,12.28
2022-09-23T08:18:34.579Z,12.48
2022-09-23T08:21:01.458Z,12.52
2022-09-23T08:23:33.489Z,12.59
2022-09-23T08:26:02.953Z,12.83
2022-09-23T08:28:30.335Z,12.81
2022-09-23T08:30:57.077Z,13.20
2022-09-23T08:33:24.490Z,13.67
2022-09-23T08:35:52.449Z,13.34
2022-09-23T08:38:20.649Z,13.56
2022-09-23T08:40:49.556Z,13.00
2022-09-23T08:43:32.937Z,12.82
2022-09-23T08:46:06.101Z,13.03
2022-09-23T08:48:37.459Z,12.94
2022-09-23T08:51:12.909Z,13.43
2022-09-23T08:53:41.896Z,13.77
2022-09-23T08:56:17.444Z,13.53
2022-09-23T08:59:02.182Z,13.41
2022-09-23T09:01:45.667Z,13.82
2022-09-23T09:04:35.361Z,13.40
2022-09-23T09:07:35.751Z,13.22
2022-09-23T09:10:06.607Z,13.62
2022-09-23T09:12:47.547Z,13.28
2022-09-23T09:15:18.832Z,13.74
2022-09-23T09:18:07.745Z,13.34
2022-09-23T09:20:42.294Z,13.25
2022-09-23T09:23:22.100Z,13.97
2022-09-23T09:25:52.742Z,14.59
2022-09-23T09:28:30.942Z,14.38
2022-09-23T09:31:02.244Z,13.37
2022-09-23T09:33:38.309Z,13.77
2022-09-23T09:36:20.044Z,14.34
2022-09-23T09:38:46.903Z,14.72
2022-09-23T09:41:18.136Z,14.41
2022-09-23T09:43:56.407Z,14.82
2022-09-23T09:46:23.093Z,14.05
2022-09-23T09:49:11.867Z,14.19
2022-09-23T09:51:41.490Z,14.11
2022-09-23T09:54:24.699Z,14.21
2022-09-23T09:56:52.633Z,14.63
2022-09-23T09:59:25.579Z,14.65
2022-09-23T10:02:27.062Z,14.69
2022-09-23T10:05:02.341Z,14.69
2022-09-23T10:07:34.148Z,14.11
2022-09-23T10:10:32.807Z,14.12
2022-09-23T10:13:15.405Z,14.16
2022-09-23T10:15:45.369Z,14.16
2022-09-23T10:18:30.790Z,14.38
2022-09-23T10:21:13.354Z,14.38
2022-09-23T10:23:43.763Z,14.75
2022-09-23T10:26:12.326Z,15.62
2022-09-23T10:28:46.316Z,15.61
2022-09-23T10:31:27.477Z,15.40
2022-09-23T10:34:00.463Z,15.22
2022-09-23T10:36:32.316Z,15.41
2022-09-23T10:39:21.496Z,15.52
2022-09-23T10:42:13.593Z,16.60
2022-09-23T10:45:18.413Z,16.05
2022-09-23T10:48:27.199Z,15.06
2022-09-23T10:50:55.618Z,15.48
2022-09-23T10:53:57.983Z,15.76
2022-09-23T10:56:24.491Z,16.32
2022-09-23T10:59:14.359Z,16.06
2022-09-23T11:01:59.161Z,16.00
2022-09-23T11:04:40.739Z,15.72
2022-09-23T11:07:22.967Z,15.48
2022-09-23T11:10:44.571Z,16.18
2022-09-23T11:13:34.294Z,16.14
2022-09-23T11:16:06.898Z,16.01
2022-09-23T11:19:02.131Z,16.26
2022-09-23T11:21:37.405Z,16.83
2022-09-23T11:24:28.989Z,16.83
2022-09-23T11:26:58.418Z,17.22
2022-09-23T11:30:01.601Z,15.54
2022-09-23T11:32:48.081Z,15.70
2022-09-23T11:35:21.268Z,16.37
2022-09-23T11:38:25.357Z,15.88
2022-09-23T11:41:14.671Z,16.05
2022-09-23T11:43:46.928Z,15.53
2022-09-23T11:46:22.916Z,15.94
2022-09-23T11:49:00.644Z,16.38
2022-09-23T11:51:42.574Z,16.58
2022-09-23T11:54:20.405Z,15.93
2022-09-23T11:56:53.369Z,15.63
2022-09-23T11:59:40.858Z,15.76
2022-09-23T12:02:22.360Z,16.51
2022-09-23T12:05:06.776Z,16.57
2022-09-23T12:07:40.724Z,16.70
2022-09-23T12:10:09.129Z,16.32
2022-09-23T12:12:41.747Z,16.71
2022-09-23T12:15:17.333Z,17.10
2022-09-23T12:18:11.721Z,16.39
2022-09-23T12:20:48.331Z,16.26
2022-09-23T12:23:48.765Z,16.90
2022-09-23T12:26:20.821Z,16.73
2022-09-23T12:28:50.755Z,16.93
2022-09-23T12:31:20.648Z,17.00
2022-09-23T12:33:54.450Z,16.64
2022-09-23T12:36:35.638Z,16.73
2022-09-23T12:39:02.137Z,16.87
2022-09-23T12:41:35.410Z,16.84
2022-09-23T12:44:08.302Z,17.64
2022-09-23T12:46:34.922Z,17.16
2022-09-23T12:49:03.666Z,16.58
2022-09-23T12:51:36.905Z,16.41
2022-09-23T12:54:03.483Z,15.91
2022-09-23T12:56:33.050Z,16.00
2022-09-23T12:59:18.114Z,15.72
2022-09-23T13:01:44.862Z,15.11
2022-09-23T13:04:53.493Z,15.33
2022-09-23T13:07:26.452Z,15.78
2022-09-23T13:10:02.127Z,16.19
2022-09-23T13:12:33.012Z,16.01
2022-09-23T13:15:03.640Z,15.89
2022-09-23T13:17:37.899Z,16.04
2022-09-23T13:20:26.063Z,16.39
2022-09-23T13:22:52.864Z,15.83
2022-09-23T13:25:25.714Z,16.68
2022-09-23T13:27:55.854Z,16.25
2022-09-23T13:30:26.660Z,16.48
2022-09-23T13:33:10.591Z,15.94
2022-09-23T13:35:56.183Z,16.03
2022-09-23T13:38:29.734Z,16.46
2022-09-23T13:41:03.579Z,16.47
2022-09-23T13:43:40.289Z,16.78
2022-09-23T13:46:19.020Z,16.99
2022-09-23T13:48:47.692Z,16.24
2022-09-23T13:51:37.942Z,16.12
2022-09-23T13:54:05.233Z,16.60
2022-09-23T13:56:33.700Z,16.82
2022-09-23T13:59:18.223Z,16.92
2022-09-23T14:01:47.127Z,17.00
2022-09-23T14:04:26.622Z,17.10
2022-09-23T14:06:54.601Z,17.65
2022-09-23T14:09:29.314Z,16.70
2022-09-23T14:11:59.699Z,17.41
2022-09-23T14:14:27.922Z,17.50
2022-09-23T14:16:56.191Z,17.50
2022-09-23T14:19:25.359Z,17.19
2022-09-23T14:21:56.009Z,16.78
2022-09-23T14:24:45.995Z,17.13
2022-09-23T14:27:17.811Z,16.44
2022-09-23T14:29:46.907Z,16.93
2022-09-23T14:32:13.690Z,17.44
2022-09-23T14:34:58.659Z,17.33
2022-09-23T14:37:48.864Z,17.71
2022-09-23T14:40:20.552Z,17.93
2022-09-23T14:42:56.551Z,18.06
2022-09-23T14:45:26.522Z,17.94
2022-09-23T14:47:59.025Z,17.46
2022-09-23T14:50:37.951Z,17.64
2022-09-23T14:53:25.708Z,17.81
2022-09-23T14:56:07.179Z,17.44
2022-09-23T14:58:51.666Z,17.45
2022-09-23T15:01:39.438Z,17.36
2022-09-23T15:04:17.996Z,16.91
2022-09-23T15:07:06.394Z,17.35
2022-09-23T15:09:37.798Z,17.46
2022-09-23T15:12:13.461Z,17.18
2022-09-23T15:14:43.113Z,17.05
2022-09-23T15:17:24.600Z,16.79
2022-09-23T15:19:56.789Z,16.54
2022-09-23T15:22:25.386Z,16.95
2022-09-23T15:24:54.200Z,16.63
2022-09-23T15:27:34.558Z,15.92
2022-09-23T15:30:19.359Z,15.96
2022-09-23T15:32:46.805Z,16.21
2022-09-23T15:35:20.016Z,16.13
2022-09-23T15:37:49.036Z,16.21
2022-09-23T15:40:33.165Z,16.31
2022-09-23T15:43:07.099Z,16.03
2022-09-23T15:45:42.929Z,15.95
2022-09-23T15:48:16.034Z,15.76
2022-09-23T15:50:45.572Z,15.58
2022-09-23T15:53:18.040Z,15.61
2022-09-23T15:55:45.456Z,15.73
2022-09-23T15:58:12.161Z,15.65
2022-09-23T16:00:38.926Z,15.35
2022-09-23T16:03:06.646Z,15.03
2022-09-23T16:05:39.384Z,15.14
2022-09-23T16:08:09.557Z,15.25
2022-09-23T16:10:37.483Z,15.23
2022-09-23T16:13:06.360Z,14.73
2022-09-23T16:15:33.641Z,14.92
2022-09-23T16:18:01.584Z,15.35
2022-09-23T16:20:30.245Z,15.46
2022-09-23T16:22:58.345Z,15.64
2022-09-23T16:25:28.134Z,16.00
2022-09-23T16:27:56.618Z,15.69
2022-09-23T16:30:27.187Z,15.86
2022-09-23T16:32:54.211Z,15.92
2022-09-23T16:35:22.913Z,16.07
2022-09-23T16:37:50.848Z,15.90
2022-09-23T16:40:20.742Z,15.63
2022-09-23T16:42:48.480Z,15.82
2022-09-23T16:45:18.051Z,15.85
2022-09-23T16:47:46.483Z,16.01
2022-09-23T16:50:15.005Z,16.12
2022-09-23T16:52:42.006Z,15.97
2022-09-23T16:55:10.404Z,15.71
2022-09-23T16:57:38.141Z,15.67
2022-09-23T17:00:50.956Z,15.70
2022-09-23T17:03:36.272Z,15.44
2022-09-23T17:06:07.947Z,15.45
2022-09-23T17:08:35.024Z,15.37
2022-09-23T17:11:01.644Z,15.35
2022-09-23T17:13:29.776Z,15.23
2022-09-23T17:15:56.653Z,15.56
2022-09-23T17:18:23.507Z,15.61
2022-09-23T17:21:04.878Z,15.65
2022-09-23T17:23:33.479Z,15.68
2022-09-23T17:26:00.173Z,15.52
2022-09-23T17:28:27.041Z,15.35
2022-09-23T17:31:02.716Z,15.38
2022-09-23T17:33:31.722Z,15.28
2022-09-23T17:36:00.094Z,15.43
2022-09-23T17:38:29.415Z,15.35
2022-09-23T17:40:59.147Z,15.44
2022-09-23T17:43:26.124Z,15.37
2022-09-23T17:45:54.607Z,15.47
2022-09-23T17:48:22.767Z,15.47
2022-09-23T17:51:02.160Z,14.60
2022-09-23T17:53:33.941Z,14.57
2022-09-23T17:56:07.569Z,14.71
2022-09-23T17:58:36.670Z,14.73
2022-09-23T18:01:04.262Z,14.75
2022-09-23T18:03:32.111Z,14.74
2022-09-23T18:06:17.012Z,14.91
2022-09-23T18:08:45.992Z,13.77
2022-09-23T18:11:23.726Z,13.92
2022-09-23T18:13:54.461Z,13.53
2022-09-23T18:16:23.786Z,12.49
2022-09-23T18:18:55.028Z,12.17
2022-09-23T18:21:23.441Z,11.70
2022-09-23T18:23:50.621Z,12.50
2022-09-23T18:26:21.365Z,12.93
2022-09-23T18:28:48.900Z,12.70
2022-09-23T18:31:17.218Z,12.19
2022-09-23T18:33:49.420Z,11.93
2022-09-23T18:36:16.034Z,12.36
2022-09-23T18:38:42.636Z,12.06
2022-09-23T18:41:09.418Z,12.28
2022-09-23T18:43:41.307Z,12.53
2022-09-23T18:46:20.352Z,13.04
2022-09-23T18:49:06.672Z,13.20
2022-09-23T18:51:36.503Z,12.77
2022-09-23T18:54:05.734Z,13.26
2022-09-23T18:56:39.804Z,13.49
2022-09-23T18:59:08.591Z,13.18
2022-09-23T19:01:35.520Z,11.94
2022-09-23T19:04:02.902Z,12.59
2022-09-23T19:06:32.343Z,12.56
2022-09-23T19:08:59.060Z,13.06
2022-09-23T19:11:25.786Z,12.15
2022-09-23T19:13:58.004Z,12.36
2022-09-23T19:16:25.899Z,12.61
2022-09-23T19:18:53.120Z,13.09
2022-09-23T19:21:22.122Z,12.88
2022-09-23T19:23:51.244Z,12.99
2022-09-23T19:26:20.811Z,12.67
2022-09-23T19:28:50.044Z,12.71
2022-09-23T19:31:20.405Z,13.18
2022-09-23T19:33:59.247Z,12.75
2022-09-23T19:36:26.099Z,11.95
2022-09-23T19:38:54.408Z,12.09
2022-09-23T19:41:20.953Z,12.37
2022-09-23T19:43:48.756Z,11.78
2022-09-23T19:46:15.968Z,12.20
2022-09-23T19:48:42.930Z,12.71
2022-09-23T19:51:09.600Z,13.10
2022-09-23T19:53:36.458Z,12.00
2022-09-23T19:56:05.024Z,11.62
2022-09-23T19:58:33.136Z,11.68
2022-09-23T20:00:59.786Z,11.68
2022-09-23T20:03:27.110Z,12.09
2022-09-23T20:05:57.426Z,12.44
2022-09-23T20:08:24.738Z,12.20
2022-09-23T20:10:51.356Z,12.47
2022-09-23T20:13:18.078Z,12.81
2022-09-23T20:15:46.527Z,12.47
2022-09-23T20:18:13.187Z,12.73
2022-09-23T20:20:39.984Z,12.27
2022-09-23T20:23:06.680Z,12.80
2022-09-23T20:25:53.193Z,12.22
2022-09-23T20:28:22.404Z,12.63
2022-09-23T20:30:49.012Z,12.99
2022-09-23T20:33:15.691Z,13.26
2022-09-23T20:35:44.040Z,13.24
2022-09-23T20:38:10.908Z,13.36
2022-09-23T20:40:38.553Z,13.07
2022-09-23T20:43:05.301Z,13.07
2022-09-23T20:45:32.064Z,13.26
2022-09-23T20:48:03.342Z,13.37
2022-09-23T20:50:30.271Z,13.32
2022-09-23T20:52:57.673Z,13.55
2022-09-23T20:55:24.262Z,12.63
2022-09-23T20:57:51.596Z,12.49
2022-09-23T21:00:18.521Z,12.50
2022-09-23T21:02:45.081Z,12.88
2022-09-23T21:05:11.671Z,12.60
2022-09-23T21:07:38.655Z,12.52
2022-09-23T21:10:07.344Z,12.98
2022-09-23T21:12:35.236Z,13.06
2022-09-23T21:15:02.335Z,12.85
2022-09-23T21:17:28.956Z,12.89
2022-09-23T21:19:55.725Z,12.75
2022-09-23T21:22:22.706Z,13.13
2022-09-23T21:25:31.561Z,13.40
2022-09-23T21:27:37.243Z,13.36
2022-09-23T21:30:04.845Z,12.87
2022-09-23T21:32:31.421Z,12.78
2022-09-23T21:34:58.007Z,13.03
2022-09-23T21:37:25.467Z,12.78
2022-09-23T21:40:11.043Z,13.19
2022-09-23T21:42:37.625Z,12.91
2022-09-23T21:45:05.256Z,13.00
2022-09-23T21:47:32.399Z,12.86
2022-09-23T21:49:59.096Z,12.80
2022-09-23T21:52:25.708Z,13.04
2022-09-23T21:54:52.275Z,12.43
2022-09-23T21:57:18.897Z,12.99
2022-09-23T21:59:45.598Z,12.98
2022-09-23T22:02:12.145Z,12.38
2022-09-23T22:04:38.844Z,11.96
2022-09-23T22:07:05.501Z,11.60
2022-09-23T22:09:32.111Z,11.96
2022-09-23T22:12:09.979Z,11.92
2022-09-23T22:14:36.899Z,12.38
2022-09-23T22:17:06.328Z,11.90
2022-09-23T22:19:35.332Z,12.04
2022-09-23T22:22:07.695Z,12.46
2022-09-23T22:24:34.317Z,12.66
2022-09-23T22:27:00.956Z,12.85
2022-09-23T22:29:46.386Z,12.77
2022-09-23T22:32:31.874Z,12.75
2022-09-23T22:34:59.289Z,12.86
2022-09-23T22:37:28.598Z,13.08
2022-09-23T22:39:55.216Z,12.98
2022-09-23T22:42:22.597Z,13.10
2022-09-23T22:44:50.379Z,13.13
2022-09-23T22:47:20.536Z,13.04
2022-09-23T22:49:48.165Z,13.02
2022-09-23T22:52:21.078Z,12.93
2022-09-23T22:54:47.929Z,12.92
2022-09-23T22:57:15.356Z,12.76
2022-09-23T22:59:48.026Z,12.81
2022-09-23T23:02:17.912Z,12.87
2022-09-23T23:04:48.073Z,12.60
2022-09-23T23:07:19.806Z,12.66
2022-09-23T23:09:50.664Z,12.67
2022-09-23T23:12:20.228Z,12.69
2022-09-23T23:14:47.998Z,12.65
2022-09-23T23:17:14.636Z,12.65
2022-09-23T23:19:41.742Z,12.59
2022-09-23T23:22:08.525Z,12.73
2022-09-23T23:24:37.973Z,12.41
2022-09-23T23:27:04.740Z,12.55
2022-09-23T23:29:31.381Z,12.42
2022-09-23T23:31:57.952Z,12.49
2022-09-23T23:34:24.612Z,12.19
2022-09-23T23:36:56.918Z,12.09
2022-09-23T23:39:24.876Z,11.97
2022-09-23T23:41:55.675Z,11.89
2022-09-23T23:44:26.358Z,11.96
2022-09-23T23:46:54.889Z,11.68
2022-09-23T23:49:21.794Z,11.55
2022-09-23T23:51:48.715Z,11.72
2022-09-23T23:54:17.066Z,11.77
2022-09-23T23:56:43.810Z,11.90
2022-09-23T23:59:10.426Z,11.90
